Time;durP1;ratioP1;P1;durP2;ratioP2;P2;SDS_P1;SDS_P2;PMS_P1;PMS_P2;Temp;Humidity;BMP_temperature;BMP_pressure;BME280_temperature;BME280_humidity;BME280_pressure;Samples;Min_cycle;Max_cycle;Signal;HPM_P1;HPM_P2
2023/07/29 00:00:42;;;;;;;5.22;3.03;;;23.00;94.50;;;;;;4985725;28;20041;-63
2023/07/29 00:03:08;;;;;;;5.13;3.10;;;23.10;94.60;;;;;;4995168;28;20053;-66
2023/07/29 00:05:34;;;;;;;4.70;3.13;;;22.90;94.40;;;;;;4996905;28;20090;-61
2023/07/29 00:08:00;;;;;;;4.40;2.90;;;22.90;94.40;;;;;;5003361;28;20093;-67
2023/07/29 00:10:26;;;;;;;5.93;3.05;;;23.00;94.50;;;;;;5017116;28;20038;-66
2023/07/29 00:12:52;;;;;;;5.00;3.25;;;23.30;94.60;;;;;;5012659;28;20479;-62
2023/07/29 00:15:18;;;;;;;5.18;3.30;;;23.10;96.00;;;;;;5013593;28;20046;-65
2023/07/29 00:17:44;;;;;;;5.43;3.80;;;23.00;94.40;;;;;;5011812;28;20493;-67
2023/07/29 00:20:10;;;;;;;5.00;3.05;;;23.10;94.50;;;;;;5011218;28;20061;-62
2023/07/29 00:22:35;;;;;;;6.40;3.08;;;23.00;94.40;;;;;;4995742;28;20034;-66
2023/07/29 00:25:01;;;;;;;4.68;3.00;;;23.20;94.50;;;;;;5010957;28;20484;-62
2023/07/29 00:27:27;;;;;;;5.05;3.00;;;23.00;95.70;;;;;;4994183;28;20441;-64
2023/07/29 00:29:53;;;;;;;4.82;2.97;;;23.00;94.50;;;;;;5012238;28;20057;-66
2023/07/29 00:32:19;;;;;;;5.75;3.58;;;23.50;96.10;;;;;;5009460;28;20121;-64
2023/07/29 00:34:44;;;;;;;6.13;3.63;;;23.20;94.40;;;;;;5001506;28;20089;-67
2023/07/29 00:37:10;;;;;;;5.00;3.30;;;23.00;94.30;;;;;;4994271;28;20046;-62
2023/07/29 00:39:39;;;;;;;4.72;3.40;;;23.10;94.40;;;;;;5005955;28;20045;-60
2023/07/29 00:42:05;;;;;;;4.60;3.03;;;23.10;94.10;;;;;;5002589;28;20099;-60
2023/07/29 00:44:34;;;;;;;5.53;3.30;;;23.00;94.30;;;;;;5012686;28;20058;-60
2023/07/29 00:47:00;;;;;;;5.78;3.10;;;23.20;93.90;;;;;;5010832;28;20435;-60
2023/07/29 00:49:26;;;;;;;5.70;3.47;;;23.10;95.80;;;;;;5043328;28;20404;-60
2023/07/29 00:51:52;;;;;;;5.20;3.22;;;23.20;94.30;;;;;;5012359;28;20042;-68
2023/07/29 00:54:17;;;;;;;5.32;3.20;;;22.90;94.30;;;;;;5011233;28;20125;-62
2023/07/29 00:56:43;;;;;;;4.78;3.25;;;23.10;94.30;;;;;;5007484;28;20049;-60
2023/07/29 00:59:09;;;;;;;4.45;3.00;;;23.00;94.30;;;;;;5011237;28;20104;-60
2023/07/29 01:01:34;;;;;;;4.72;3.30;;;23.10;94.30;;;;;;5012164;28;20042;-60
2023/07/29 01:04:00;;;;;;;5.50;3.10;;;22.80;95.70;;;;;;5012024;28;20080;-60
2023/07/29 01:06:49;;;;;;;5.65;3.10;;;23.10;95.50;;;;;;5011718;28;20046;-60
2023/07/29 01:09:24;;;;;;;5.63;3.08;;;23.00;93.70;;;;;;5007462;28;20057;-60
2023/07/29 01:12:05;;;;;;;4.97;3.55;;;23.10;94.50;;;;;;5002004;28;20492;-60
2023/07/29 01:14:36;;;;;;;5.80;2.85;;;22.90;93.80;;;;;;5006299;28;20056;-61
2023/07/29 01:17:03;;;;;;;7.32;3.35;;;23.00;93.70;;;;;;4992395;28;20054;-62
2023/07/29 01:19:44;;;;;;;4.85;3.33;;;23.00;94.40;;;;;;5001551;28;20115;-60
2023/07/29 01:22:11;;;;;;;5.30;2.90;;;23.20;93.90;;;;;;5012620;28;20100;-59
2023/07/29 01:24:38;;;;;;;6.18;3.33;;;23.00;94.60;;;;;;5011123;28;20053;-60
2023/07/29 01:27:05;;;;;;;5.25;3.20;;;22.90;94.40;;;;;;5007320;28;20046;-59
2023/07/29 01:29:31;;;;;;;4.93;2.90;;;23.20;95.50;;;;;;5010411;28;20080;-60
2023/07/29 01:31:58;;;;;;;4.50;2.83;;;23.00;94.20;;;;;;5008865;28;20078;-60
2023/07/29 01:35:01;;;;;;;4.85;3.30;;;23.20;94.40;;;;;;5002944;28;20476;-64
2023/07/29 01:37:27;;;;;;;4.97;3.00;;;23.00;95.70;;;;;;4991212;28;20058;-60
2023/07/29 01:39:55;;;;;;;7.65;3.53;;;22.70;94.30;;;;;;4976869;28;20062;-60
2023/07/29 01:42:20;;;;;;;4.30;2.80;;;23.10;95.60;;;;;;4977526;28;20443;-60
2023/07/29 01:44:46;;;;;;;5.15;3.15;;;23.30;95.80;;;;;;4977028;28;20095;-60
2023/07/29 01:47:12;;;;;;;4.90;3.20;;;23.00;94.10;;;;;;4993356;28;20058;-60
2023/07/29 01:49:38;;;;;;;5.00;3.40;;;;;;;;;;4991482;28;20057;-60
2023/07/29 01:52:04;;;;;;;4.80;2.80;;;22.80;93.40;;;;;;5010046;28;20527;-60
2023/07/29 01:54:30;;;;;;;4.60;3.10;;;22.90;94.20;;;;;;4993782;28;20064;-60
2023/07/29 01:56:55;;;;;;;5.30;3.25;;;22.90;94.20;;;;;;5010391;28;20071;-60
2023/07/29 01:59:21;;;;;;;6.18;3.38;;;23.10;94.30;;;;;;4992799;28;20184;-60
2023/07/29 02:01:47;;;;;;;5.53;3.47;;;23.00;95.70;;;;;;5009664;28;20037;-59
2023/07/29 02:04:13;;;;;;;4.80;3.30;;;23.00;94.30;;;;;;5009937;28;20116;-59
2023/07/29 02:06:38;;;;;;;6.18;3.20;;;23.20;94.30;;;;;;5009553;28;20061;-59
2023/07/29 02:09:04;;;;;;;5.22;3.80;;;23.10;94.30;;;;;;4991919;28;20038;-59
2023/07/29 02:11:30;;;;;;;5.70;3.10;;;22.90;94.20;;;;;;4993687;28;20056;-60
2023/07/29 02:13:56;;;;;;;6.00;3.00;;;22.90;94.30;;;;;;5003708;28;20063;-60
2023/07/29 02:16:25;;;;;;;5.38;3.35;;;22.90;95.40;;;;;;5035114;28;20362;-60
2023/07/29 02:18:51;;;;;;;4.88;3.22;;;23.20;95.70;;;;;;5024836;28;20086;-60
2023/07/29 02:21:16;;;;;;;5.32;3.50;;;23.00;94.20;;;;;;5027770;28;20085;-59
2023/07/29 02:23:42;;;;;;;7.57;3.70;;;23.20;95.60;;;;;;4995633;28;20527;-60
2023/07/29 02:26:08;;;;;;;4.53;3.33;;;23.00;95.70;;;;;;4992625;28;20117;-60
2023/07/29 02:28:34;;;;;;;6.45;3.47;;;22.90;95.40;;;;;;5020556;28;20875;-60
2023/07/29 02:31:21;;;;;;;5.55;3.38;;;23.00;94.20;;;;;;5012053;28;20093;-60
2023/07/29 02:33:47;;;;;;;5.93;3.28;;;23.00;94.50;;;;;;5014620;28;20111;-60
2023/07/29 02:36:13;;;;;;;6.18;3.45;;;23.20;94.30;;;;;;5028936;28;20209;-62
2023/07/29 02:38:39;;;;;;;6.75;3.45;;;23.00;94.10;;;;;;5001448;28;20373;-59
2023/07/29 02:41:05;;;;;;;6.05;3.17;;;23.00;94.20;;;;;;5012836;28;20125;-59
2023/07/29 02:43:31;;;;;;;5.32;3.72;;;23.00;94.20;;;;;;4978813;28;20535;-59
2023/07/29 02:45:57;;;;;;;7.97;3.90;;;22.90;95.70;;;;;;4994752;28;20086;-60
2023/07/29 02:48:22;;;;;;;6.13;3.80;;;22.80;94.10;;;;;;5002876;28;20112;-59
2023/07/29 02:50:48;;;;;;;5.60;3.55;;;22.90;94.20;;;;;;5012365;28;20038;-59
2023/07/29 02:53:14;;;;;;;4.50;3.20;;;22.90;95.60;;;;;;5009025;28;20049;-60
2023/07/29 02:55:40;;;;;;;6.30;3.60;;;23.40;95.90;;;;;;4994632;28;20050;-59
2023/07/29 02:58:06;;;;;;;5.03;3.40;;;23.00;95.60;;;;;;4998332;28;20496;-59
2023/07/29 03:00:32;;;;;;;5.30;3.40;;;23.10;95.30;;;;;;5012891;28;20049;-60
2023/07/29 03:02:59;;;;;;;4.90;3.22;;;23.20;94.20;;;;;;5013638;28;20558;-60
2023/07/29 03:05:27;;;;;;;6.10;3.80;;;23.10;94.30;;;;;;5014426;28;20128;-61
2023/07/29 03:07:52;;;;;;;4.93;3.22;;;23.00;94.30;;;;;;4995991;28;20050;-61
2023/07/29 03:10:18;;;;;;;5.75;3.22;;;23.10;94.20;;;;;;5014002;28;20403;-61
2023/07/29 03:12:44;;;;;;;4.80;3.35;;;23.10;94.20;;;;;;5014801;28;20526;-60
2023/07/29 03:15:10;;;;;;;5.60;3.50;;;23.00;95.50;;;;;;4995911;28;20077;-60
2023/07/29 03:17:35;;;;;;;4.78;3.47;;;23.20;95.60;;;;;;5007351;28;20038;-61
2023/07/29 03:20:01;;;;;;;4.82;3.15;;;23.00;94.10;;;;;;5014218;28;20081;-65
2023/07/29 03:22:27;;;;;;;6.68;3.35;;;23.10;94.20;;;;;;5013742;28;20376;-60
2023/07/29 03:24:52;;;;;;;5.50;3.58;;;22.70;94.10;;;;;;5014329;28;20262;-60
2023/07/29 03:27:18;;;;;;;4.97;3.13;;;23.00;94.10;;;;;;5012131;28;20042;-60
2023/07/29 03:29:44;;;;;;;6.00;3.67;;;22.80;94.10;;;;;;5006494;28;20050;-62
2023/07/29 03:32:10;;;;;;;5.72;3.33;;;22.80;94.00;;;;;;5014354;28;20175;-64
2023/07/29 03:34:36;;;;;;;4.95;3.30;;;23.00;95.50;;;;;;5014664;28;20053;-60
2023/07/29 03:37:02;;;;;;;6.97;3.60;;;23.10;94.10;;;;;;5013255;28;20046;-60
2023/07/29 03:39:28;;;;;;;5.32;3.47;;;22.90;94.00;;;;;;5011651;28;20411;-60
2023/07/29 03:41:53;;;;;;;4.78;3.10;;;22.90;95.10;;;;;;5013105;28;20084;-60
2023/07/29 03:44:19;;;;;;;5.65;3.72;;;23.20;94.10;;;;;;5012220;28;20065;-65
2023/07/29 03:46:45;;;;;;;5.38;3.58;;;22.80;93.90;;;;;;5013231;28;20057;-66
2023/07/29 03:49:11;;;;;;;5.32;3.30;;;23.10;94.10;;;;;;5004816;28;20081;-69
2023/07/29 03:51:36;;;;;;;4.65;3.33;;;22.80;95.40;;;;;;4995488;28;20046;-66
2023/07/29 03:54:02;;;;;;;7.25;3.33;;;22.80;95.30;;;;;;4999819;28;20085;-60
2023/07/29 03:56:28;;;;;;;6.03;3.40;;;23.10;94.10;;;;;;5013155;28;20049;-62
2023/07/29 03:58:56;;;;;;;6.13;3.33;;;22.70;93.90;;;;;;4995333;28;20076;-62
2023/07/29 04:01:22;;;;;;;4.70;3.10;;;23.00;95.50;;;;;;5012024;28;20038;-61
2023/07/29 04:03:48;;;;;;;6.55;3.72;;;22.80;94.00;;;;;;5008152;28;20084;-61
2023/07/29 04:06:14;;;;;;;6.07;3.50;;;22.90;94.00;;;;;;4994988;28;20046;-61
2023/07/29 04:08:40;;;;;;;5.85;3.30;;;23.20;94.10;;;;;;4993048;28;20046;-60
2023/07/29 04:11:06;;;;;;;5.85;3.15;;;23.00;94.10;;;;;;5009836;28;20085;-60
2023/07/29 04:13:32;;;;;;;5.63;3.35;;;22.80;95.30;;;;;;4994567;28;20432;-60
2023/07/29 04:15:58;;;;;;;5.43;3.65;;;23.00;94.00;;;;;;5014297;28;20121;-60
2023/07/29 04:18:23;;;;;;;5.30;3.38;;;23.00;94.00;;;;;;5013082;28;20049;-60
2023/07/29 04:20:49;;;;;;;4.43;2.92;;;22.90;95.00;;;;;;4995809;28;20078;-61
2023/07/29 04:23:15;;;;;;;5.63;3.28;;;23.00;94.00;;;;;;5000203;28;20199;-61
2023/07/29 04:25:41;;;;;;;5.30;3.15;;;22.90;95.00;;;;;;5010545;28;20116;-60
2023/07/29 04:28:06;;;;;;;5.00;3.13;;;23.10;94.00;;;;;;5012167;28;20038;-61
2023/07/29 04:30:32;;;;;;;5.50;3.30;;;23.10;94.00;;;;;;4998869;28;20436;-60
2023/07/29 04:32:58;;;;;;;4.90;3.28;;;22.70;93.90;;;;;;5004936;28;20510;-60
2023/07/29 04:35:24;;;;;;;4.55;2.72;;;23.10;94.00;;;;;;4995099;28;20100;-60
2023/07/29 04:37:49;;;;;;;5.15;3.08;;;23.00;95.00;;;;;;4996403;28;20046;-61
2023/07/29 04:40:15;;;;;;;6.97;3.38;;;23.00;93.90;;;;;;5005775;28;20045;-64
2023/07/29 04:42:41;;;;;;;5.65;3.00;;;22.80;93.90;;;;;;5042896;28;20077;-61
2023/07/29 04:45:07;;;;;;;5.95;2.92;;;22.90;93.90;;;;;;5008244;28;20403;-61
2023/07/29 04:47:33;;;;;;;5.07;2.80;;;23.10;93.80;;;;;;4997233;28;20054;-68
2023/07/29 04:49:59;;;;;;;4.90;2.80;;;22.90;95.00;;;;;;5010305;28;20766;-66
2023/07/29 04:52:24;;;;;;;4.85;3.08;;;22.70;95.20;;;;;;5012264;28;20094;-69
2023/07/29 04:54:50;;;;;;;4.38;2.83;;;23.10;94.90;;;;;;5009243;28;20100;-62
2023/07/29 04:57:16;;;;;;;4.78;2.70;;;22.80;93.80;;;;;;4993763;28;20042;-60
2023/07/29 04:59:42;;;;;;;5.63;2.95;;;23.10;93.80;;;;;;4993862;28;20046;-60
2023/07/29 05:02:08;;;;;;;5.13;3.20;;;23.10;93.80;;;;;;5007584;28;20041;-60
2023/07/29 05:04:33;;;;;;;6.43;2.90;;;23.30;93.90;;;;;;5011907;28;20495;-60
2023/07/29 05:06:59;;;;;;;5.40;2.70;;;23.20;93.80;;;;;;5009996;28;20100;-61
2023/07/29 05:09:25;;;;;;;6.32;3.38;;;23.10;93.60;;;;;;4999294;28;20050;-60
2023/07/29 05:11:51;;;;;;;4.88;2.92;;;23.10;93.70;;;;;;5031772;28;20058;-60
2023/07/29 05:14:17;;;;;;;4.88;2.78;;;22.30;93.40;;;;;;4999927;28;20475;-60
2023/07/29 05:16:43;;;;;;;6.32;2.88;;;23.20;93.60;;;;;;5011308;28;20507;-60
2023/07/29 05:19:09;;;;;;;5.70;2.90;;;23.50;93.60;;;;;;4992958;28;20050;-60
2023/07/29 05:21:34;;;;;;;4.80;2.88;;;23.30;93.50;;;;;;5011908;28;20061;-60
2023/07/29 05:24:00;;;;;;;5.00;3.20;;;23.40;94.70;;;;;;5012116;28;20503;-59
2023/07/29 05:26:26;;;;;;;5.53;2.80;;;23.60;93.40;;;;;;5010917;28;20045;-60
2023/07/29 05:28:52;;;;;;;4.78;2.85;;;23.30;93.30;;;;;;5009005;28;20053;-62
2023/07/29 05:31:17;;;;;;;5.05;2.58;;;23.60;93.20;;;;;;4991846;28;20046;-60
2023/07/29 05:33:43;;;;;;;4.82;2.70;;;23.60;93.20;;;;;;4991792;28;20142;-60
2023/07/29 05:36:09;;;;;;;5.18;2.65;;;23.60;93.20;;;;;;5006249;28;20038;-65
2023/07/29 05:38:35;;;;;;;5.28;2.80;;;23.30;93.10;;;;;;4993861;28;20462;-66
2023/07/29 05:41:00;;;;;;;5.05;2.58;;;23.60;93.10;;;;;;5011586;28;20041;-62
2023/07/29 05:43:26;;;;;;;4.18;2.50;;;23.50;93.10;;;;;;5011168;28;20484;-64
2023/07/29 05:45:52;;;;;;;5.80;2.70;;;23.50;93.00;;;;;;5010766;28;20057;-65
2023/07/29 05:48:19;;;;;;;4.78;2.60;;;23.30;93.00;;;;;;4996910;28;20033;-63
2023/07/29 05:50:45;;;;;;;3.70;2.20;;;23.60;93.10;;;;;;5010395;28;20121;-62
2023/07/29 05:53:11;;;;;;;4.45;2.40;;;23.60;93.00;;;;;;4991752;28;20485;-65
2023/07/29 05:55:37;;;;;;;5.13;2.60;;;23.50;93.00;;;;;;5021229;28;20411;-66
2023/07/29 05:58:02;;;;;;;4.05;2.35;;;23.60;93.10;;;;;;5010258;28;20092;-63
2023/07/29 06:00:28;;;;;;;4.03;2.30;;;23.60;93.00;;;;;;5009274;28;20045;-63
2023/07/29 06:02:54;;;;;;;4.68;2.53;;;23.20;92.90;;;;;;5011828;28;20045;-62
2023/07/29 06:05:19;;;;;;;4.70;2.45;;;23.40;92.90;;;;;;5001335;28;20060;-63
2023/07/29 06:07:47;;;;;;;4.72;2.60;;;23.60;93.00;;;;;;5013913;28;20037;-63
2023/07/29 06:10:13;;;;;;;5.35;2.67;;;23.40;93.00;;;;;;5005074;28;20491;-63
2023/07/29 06:12:39;;;;;;;4.95;2.72;;;23.40;93.00;;;;;;4996400;28;20053;-63
2023/07/29 06:15:05;;;;;;;4.05;2.15;;;23.50;93.00;;;;;;5007473;28;20045;-62
2023/07/29 06:17:31;;;;;;;5.80;2.60;;;23.30;92.70;;;;;;5009029;28;20042;-63
2023/07/29 06:19:57;;;;;;;4.13;2.15;;;23.40;92.80;;;;;;4999231;28;20494;-64
2023/07/29 06:22:23;;;;;;;4.43;2.22;;;23.60;92.90;;;;;;5028681;28;20496;-62
2023/07/29 06:24:48;;;;;;;4.63;2.30;;;23.50;92.90;;;;;;5002085;28;20729;-62
2023/07/29 06:27:14;;;;;;;5.03;2.40;;;23.60;92.90;;;;;;5016285;28;20406;-62
2023/07/29 06:29:40;;;;;;;4.75;2.30;;;23.40;92.80;;;;;;5014859;28;20046;-65
2023/07/29 06:32:06;;;;;;;4.28;2.10;;;23.30;92.80;;;;;;5015798;28;20447;-61
2023/07/29 06:34:31;;;;;;;4.47;2.35;;;23.50;94.30;;;;;;5014639;28;20057;-64
2023/07/29 06:36:57;;;;;;;4.53;2.45;;;23.40;92.80;;;;;;5010397;28;20038;-62
2023/07/29 06:39:23;;;;;;;4.47;2.20;;;23.30;92.70;;;;;;5006245;28;20085;-60
2023/07/29 06:41:49;;;;;;;5.22;2.30;;;23.70;92.80;;;;;;5014506;28;20076;-62
2023/07/29 06:44:14;;;;;;;4.35;2.10;;;23.80;92.90;;;;;;5014232;28;20062;-61
2023/07/29 06:46:40;;;;;;;4.00;2.10;;;23.60;92.70;;;;;;5013350;28;20053;-60
2023/07/29 06:49:06;;;;;;;4.55;2.20;;;23.50;92.80;;;;;;5014240;28;20367;-60
2023/07/29 06:51:34;;;;;;;3.78;2.28;;;23.70;92.70;;;;;;5014151;28;20542;-60
2023/07/29 06:54:00;;;;;;;4.20;2.25;;;23.40;93.90;;;;;;5010864;28;20054;-60
2023/07/29 06:56:26;;;;;;;4.97;2.30;;;23.60;92.80;;;;;;5012505;28;20126;-61
2023/07/29 06:58:52;;;;;;;4.38;2.20;;;23.80;92.70;;;;;;4995442;28;20129;-61
2023/07/29 07:01:18;;;;;;;3.45;2.08;;;23.80;92.60;;;;;;5014024;28;20125;-60
2023/07/29 07:03:44;;;;;;;5.03;2.10;;;23.60;92.60;;;;;;5030818;28;20108;-60
2023/07/29 07:06:09;;;;;;;4.50;2.10;;;23.90;93.70;;;;;;5008409;28;20046;-62
2023/07/29 07:08:35;;;;;;;4.85;2.20;;;23.90;92.50;;;;;;5003884;28;20055;-66
2023/07/29 07:11:01;;;;;;;3.85;1.90;;;24.00;92.40;;;;;;5030567;28;20080;-63
2023/07/29 07:13:27;;;;;;;4.47;2.20;;;24.30;92.50;;;;;;5020657;28;20458;-67
2023/07/29 07:15:56;;;;;;;4.97;2.42;;;23.90;92.20;;;;;;5013451;28;20117;-69
2023/07/29 07:18:22;;;;;;;4.85;1.90;;;24.00;92.20;;;;;;5012316;28;20073;-66
2023/07/29 07:20:49;;;;;;;4.15;2.30;;;24.00;92.20;;;;;;5046024;28;20038;-64
2023/07/29 07:23:16;;;;;;;5.03;2.17;;;24.10;92.20;;;;;;5013849;28;20128;-60
2023/07/29 07:25:42;;;;;;;4.68;2.38;;;24.00;92.10;;;;;;5012595;28;20045;-65
2023/07/29 07:28:08;;;;;;;3.92;2.20;;;24.20;92.10;;;;;;5010579;28;20593;-59
2023/07/29 07:30:34;;;;;;;5.70;2.20;;;24.30;92.10;;;;;;5006669;28;20115;-63
2023/07/29 07:33:00;;;;;;;4.65;2.30;;;24.30;91.90;;;;;;5013727;28;20033;-65
2023/07/29 07:35:26;;;;;;;5.35;2.22;;;24.40;91.90;;;;;;5012162;28;20050;-65
2023/07/29 07:37:52;;;;;;;3.75;2.25;;;24.40;91.80;;;;;;5012807;28;20096;-61
2023/07/29 07:40:18;;;;;;;3.78;2.15;;;24.40;91.70;;;;;;5012852;28;20041;-68
2023/07/29 07:42:43;;;;;;;4.05;2.10;;;24.40;91.60;;;;;;5014965;28;20072;-60
2023/07/29 07:45:09;;;;;;;6.47;2.22;;;24.50;91.60;;;;;;5011416;28;20157;-62
2023/07/29 07:47:35;;;;;;;4.57;2.10;;;24.70;91.40;;;;;;5014021;28;20140;-60
2023/07/29 07:50:01;;;;;;;5.35;2.28;;;24.50;91.40;;;;;;5008575;28;20041;-70
2023/07/29 07:52:27;;;;;;;12.20;3.20;;;24.60;92.40;;;;;;5004365;28;20508;-59
2023/07/29 07:54:54;;;;;;;6.10;3.08;;;24.50;91.40;;;;;;5014615;28;20058;-59
2023/07/29 07:57:22;;;;;;;6.57;2.83;;;24.40;91.20;;;;;;5011022;28;20046;-72
2023/07/29 07:59:48;;;;;;;5.65;2.78;;;24.50;91.30;;;;;;5011191;28;20064;-69
2023/07/29 08:02:14;;;;;;;9.15;2.30;;;24.50;91.50;;;;;;5008788;28;20124;-59
2023/07/29 08:04:40;;;;;;;8.07;2.72;;;24.40;91.40;;;;;;5005886;28;20050;-59
2023/07/29 08:07:06;;;;;;;4.88;2.65;;;24.50;91.40;;;;;;5011649;28;20093;-58
2023/07/29 08:09:32;;;;;;;6.57;2.92;;;24.30;91.40;;;;;;5012957;28;20043;-60
2023/07/29 08:11:57;;;;;;;6.55;2.65;;;24.50;91.40;;;;;;5013523;28;20050;-59
2023/07/29 08:14:23;;;;;;;4.88;2.60;;;24.70;91.40;;;;;;5013024;28;20050;-60
2023/07/29 08:16:49;;;;;;;6.10;2.50;;;24.40;91.20;;;;;;5003694;28;20046;-60
2023/07/29 08:19:15;;;;;;;5.80;2.47;;;24.70;91.30;;;;;;5005940;28;20042;-60
2023/07/29 08:21:40;;;;;;;5.07;2.38;;;24.50;91.20;;;;;;5010131;28;20036;-59
2023/07/29 08:24:07;;;;;;;5.18;2.50;;;24.50;92.60;;;;;;5012165;28;20507;-60
2023/07/29 08:26:33;;;;;;;6.35;2.85;;;24.30;91.20;;;;;;5014208;28;20042;-67
2023/07/29 08:28:59;;;;;;;7.15;2.70;;;24.60;91.20;;;;;;5011770;28;20081;-63
2023/07/29 08:31:24;;;;;;;6.03;2.50;;;24.50;91.10;;;;;;5011939;28;20136;-60
2023/07/29 08:33:50;;;;;;;5.60;2.63;;;24.70;91.20;;;;;;5012051;28;20039;-59
2023/07/29 08:36:16;;;;;;;5.18;2.58;;;24.80;91.10;;;;;;5006816;28;20399;-60
2023/07/29 08:38:42;;;;;;;5.78;2.47;;;24.60;91.00;;;;;;5042256;28;20053;-59
2023/07/29 08:41:07;;;;;;;5.82;2.85;;;25.00;91.10;;;;;;4993937;28;20054;-60
2023/07/29 08:43:33;;;;;;;5.65;2.63;;;24.70;91.00;;;;;;4994134;28;20039;-59
2023/07/29 08:45:59;;;;;;;4.45;2.80;;;24.70;92.30;;;;;;5008969;28;20855;-59
2023/07/29 08:48:41;;;;;;;5.78;2.50;;;24.70;91.00;;;;;;5005412;28;20061;-69
2023/07/29 08:51:08;;;;;;;5.43;2.70;;;24.90;91.20;;;;;;5012467;28;20400;-59
2023/07/29 08:53:35;;;;;;;5.97;2.55;;;24.90;91.00;;;;;;5007974;28;20042;-61
2023/07/29 08:56:01;;;;;;;12.85;4.15;;;25.00;90.80;;;;;;5006906;28;20046;-61
2023/07/29 08:58:26;;;;;;;13.90;3.80;;;25.00;90.70;;;;;;5008733;28;20036;-61
2023/07/29 09:00:52;;;;;;;10.30;4.05;;;25.10;90.50;;;;;;5018253;28;20447;-61
2023/07/29 09:03:19;;;;;;;9.90;3.50;;;24.90;90.40;;;;;;4993900;28;20042;-61
2023/07/29 09:05:45;;;;;;;8.73;4.18;;;25.20;90.50;;;;;;5008631;28;20058;-60
2023/07/29 09:08:11;;;;;;;9.23;3.55;;;25.10;90.30;;;;;;4993565;28;20073;-61
2023/07/29 09:10:37;;;;;;;10.77;3.80;;;25.20;90.20;;;;;;5005317;28;20038;-61
2023/07/29 09:13:03;;;;;;;7.90;3.17;;;25.10;90.10;;;;;;4995817;28;20125;-61
2023/07/29 09:15:30;;;;;;;9.45;3.25;;;24.90;90.00;;;;;;5009793;28;20053;-61
2023/07/29 09:17:57;;;;;;;7.68;3.60;;;25.00;90.10;;;;;;4995449;28;20491;-61
2023/07/29 09:20:29;;;;;;;6.60;3.42;;;24.70;90.00;;;;;;5026527;28;20057;-61
2023/07/29 09:22:55;;;;;;;7.88;3.30;;;24.80;90.00;;;;;;4980900;28;20473;-62
2023/07/29 09:25:28;;;;;;;8.68;4.05;;;24.60;90.10;;;;;;4979857;28;20049;-60
2023/07/29 09:28:01;;;;;;;8.40;3.70;;;24.60;90.20;;;;;;4986574;28;20054;-61
2023/07/29 09:30:27;;;;;;;6.85;3.55;;;24.80;89.20;;;;;;4991756;28;20050;-61
2023/07/29 09:32:57;;;;;;;6.18;3.08;;;24.60;90.10;;;;;;4993297;28;20076;-62
2023/07/29 09:35:23;;;;;;;5.50;3.15;;;24.60;90.30;;;;;;4995266;28;20149;-60
2023/07/29 09:37:51;;;;;;;9.98;3.22;;;24.90;90.30;;;;;;5001216;28;20043;-60
2023/07/29 09:40:17;;;;;;;7.20;3.40;;;24.60;90.20;;;;;;4991318;28;20524;-61
2023/07/29 09:43:04;;;;;;;5.15;3.00;;;24.90;90.00;;;;;;4998444;28;20061;-60
2023/07/29 09:45:29;;;;;;;5.78;3.17;;;24.70;89.70;;;;;;5009932;28;20088;-61
2023/07/29 09:47:57;;;;;;;5.10;2.83;;;24.90;89.30;;;;;;5006645;28;20059;-67
2023/07/29 09:50:26;;;;;;;6.82;3.00;;;24.80;89.90;;;;;;5007562;28;20504;-62
2023/07/29 09:52:52;;;;;;;5.68;3.28;;;24.80;89.80;;;;;;5004752;28;20056;-61
2023/07/29 09:55:19;;;;;;;5.43;3.05;;;24.80;89.80;;;;;;5011753;28;20057;-62
2023/07/29 09:57:45;;;;;;;7.25;2.90;;;24.60;89.30;;;;;;5012407;28;20053;-69
2023/07/29 10:00:12;;;;;;;6.03;3.10;;;24.60;89.60;;;;;;5010514;28;20041;-66
2023/07/29 10:02:43;;;;;;;6.38;2.78;;;24.30;89.30;;;;;;5001375;28;20046;-60
2023/07/29 10:05:09;;;;;;;6.67;3.40;;;24.70;89.90;;;;;;5011196;28;20052;-60
2023/07/29 10:07:39;;;;;;;6.47;3.00;;;24.70;89.90;;;;;;5012384;28;20049;-61
2023/07/29 10:10:06;;;;;;;9.05;3.13;;;24.60;89.90;;;;;;5012679;28;20068;-61
2023/07/29 10:12:32;;;;;;;5.88;2.95;;;24.50;89.60;;;;;;5027608;28;20121;-61
2023/07/29 10:15:03;;;;;;;4.30;2.60;;;24.40;90.00;;;;;;5009072;28;20057;-60
2023/07/29 10:17:29;;;;;;;8.10;2.67;;;24.40;90.10;;;;;;5007664;28;20042;-60
2023/07/29 10:19:57;;;;;;;6.03;2.88;;;24.60;89.90;;;;;;4993460;28;20129;-60
2023/07/29 10:22:24;;;;;;;6.05;2.92;;;24.60;89.90;;;;;;5001261;28;20117;-63
2023/07/29 10:24:51;;;;;;;6.60;2.50;;;24.90;90.10;;;;;;5011358;28;20436;-64
2023/07/29 10:27:17;;;;;;;6.47;2.55;;;24.70;89.70;;;;;;5011013;28;20078;-62
2023/07/29 10:29:43;;;;;;;7.63;2.70;;;25.00;89.30;;;;;;5006637;28;20041;-66
2023/07/29 10:32:09;;;;;;;9.20;2.50;;;25.00;89.10;;;;;;5015239;28;20133;-61
2023/07/29 10:34:36;;;;;;;10.88;2.90;;;24.80;88.60;;;;;;5010534;28;20380;-60
2023/07/29 10:37:02;;;;;;;7.65;2.80;;;25.20;88.60;;;;;;4993920;28;20104;-61
2023/07/29 10:39:28;;;;;;;8.55;2.38;;;25.20;88.30;;;;;;4991600;28;20043;-62
2023/07/29 10:42:04;;;;;;;6.30;2.58;;;25.40;88.20;;;;;;5004841;28;20042;-60
2023/07/29 10:44:46;;;;;;;5.78;2.75;;;25.50;88.30;;;;;;5010608;28;20141;-61
2023/07/29 10:47:26;;;;;;;5.55;2.40;;;25.40;88.00;;;;;;5010001;28;20042;-61
2023/07/29 10:49:54;;;;;;;5.28;2.10;;;25.30;87.90;;;;;;5010764;28;20050;-60
2023/07/29 10:52:35;;;;;;;6.28;2.13;;;25.30;87.70;;;;;;5007485;28;20042;-61
2023/07/29 10:55:01;;;;;;;4.75;2.33;;;25.40;87.70;;;;;;5013406;28;20050;-62
2023/07/29 10:57:31;;;;;;;4.53;1.90;;;25.40;88.20;;;;;;4995907;28;20042;-60
2023/07/29 10:59:57;;;;;;;5.28;2.55;;;25.10;87.50;;;;;;5013971;28;20044;-60
2023/07/29 11:02:32;;;;;;;6.60;2.08;;;25.20;87.40;;;;;;5011862;28;20124;-61
2023/07/29 11:04:59;;;;;;;3.97;1.90;;;25.20;86.40;;;;;;5013327;28;20132;-60
2023/07/29 11:07:27;;;;;;;4.72;2.20;;;25.10;87.60;;;;;;5000090;28;20403;-60
2023/07/29 11:10:01;;;;;;;4.85;2.13;;;25.00;87.60;;;;;;5002511;28;20061;-61
2023/07/29 11:12:51;;;;;;;5.13;1.90;;;25.30;87.00;;;;;;5006720;28;20060;-60
2023/07/29 11:15:19;;;;;;;3.80;1.70;;;25.40;86.50;;;;;;5015193;28;20073;-61
2023/07/29 11:17:50;;;;;;;5.57;2.25;;;25.60;87.60;;;;;;5015491;28;20112;-60
2023/07/29 11:20:17;;;;;;;5.43;2.25;;;25.30;85.80;;;;;;5027008;28;20112;-67
2023/07/29 11:22:43;;;;;;;4.28;1.95;;;25.40;87.20;;;;;;5009995;28;20054;-59
2023/07/29 11:25:11;;;;;;;7.57;2.67;;;25.40;86.50;;;;;;5014495;28;20562;-60
2023/07/29 11:27:37;;;;;;;5.28;2.13;;;25.40;86.50;;;;;;4997880;28;20058;-60
2023/07/29 11:30:08;;;;;;;4.90;2.30;;;25.50;86.20;;;;;;4995444;28;20113;-60
2023/07/29 11:32:34;;;;;;;7.25;2.78;;;25.30;85.60;;;;;;5009297;28;20076;-62
2023/07/29 11:35:04;;;;;;;6.38;2.65;;;25.70;85.80;;;;;;5009825;28;20118;-60
2023/07/29 11:37:29;;;;;;;6.95;2.65;;;25.50;85.40;;;;;;4999995;28;20046;-60
2023/07/29 11:39:55;;;;;;;5.57;2.58;;;25.70;85.30;;;;;;5007816;28;20045;-60
2023/07/29 11:42:21;;;;;;;5.82;2.22;;;25.80;85.40;;;;;;5012514;28;20072;-60
2023/07/29 11:44:47;;;;;;;5.82;2.75;;;25.50;85.10;;;;;;5001101;28;20056;-59
2023/07/29 11:47:13;;;;;;;5.00;2.50;;;25.40;84.90;;;;;;5045565;28;20535;-60
2023/07/29 11:49:39;;;;;;;20.70;3.53;;;25.40;85.10;;;;;;5010264;28;20053;-66
2023/07/29 11:52:08;;;;;;;8.52;2.60;;;25.40;85.50;;;;;;5005612;28;20115;-61
2023/07/29 11:54:37;;;;;;;14.32;2.58;;;25.10;85.70;;;;;;4995873;28;20050;-61
2023/07/29 11:57:09;;;;;;;36.00;3.95;;;25.10;85.50;;;;;;5000524;28;20173;-60
2023/07/29 11:59:36;;;;;;;26.25;4.82;;;24.80;86.10;;;;;;5014655;28;20140;-61
2023/07/29 12:02:06;;;;;;;16.05;3.72;;;24.70;86.90;;;;;;4995654;28;20051;-60
2023/07/29 12:04:32;;;;;;;13.65;3.22;;;24.70;86.20;;;;;;5000384;28;20128;-60
2023/07/29 12:06:58;;;;;;;13.38;3.20;;;24.70;88.60;;;;;;5030288;28;20037;-60
2023/07/29 12:09:23;;;;;;;12.77;2.53;;;24.70;89.20;;;;;;5014478;28;20060;-63
2023/07/29 12:11:49;;;;;;;14.60;2.92;;;24.60;89.10;;;;;;5014216;28;20042;-61
2023/07/29 12:14:17;;;;;;;13.05;2.95;;;24.50;89.60;;;;;;5012617;28;20116;-61
2023/07/29 12:16:43;;;;;;;10.57;2.63;;;24.70;90.00;;;;;;5000460;28;20546;-65
2023/07/29 12:19:12;;;;;;;8.15;2.38;;;24.40;90.40;;;;;;5012973;28;20448;-61
2023/07/29 12:21:38;;;;;;;7.25;2.40;;;24.60;90.80;;;;;;5014451;28;20042;-61
2023/07/29 12:24:04;;;;;;;6.63;2.47;;;24.60;90.80;;;;;;5014459;28;20050;-61
2023/07/29 12:26:30;;;;;;;5.53;2.30;;;24.60;90.90;;;;;;5006827;28;20046;-68
2023/07/29 12:28:56;;;;;;;5.28;2.45;;;24.50;90.80;;;;;;4994595;28;20512;-61
2023/07/29 12:31:30;;;;;;;7.75;2.55;;;24.50;90.80;;;;;;5012400;28;20080;-61
2023/07/29 12:33:56;;;;;;;7.88;2.80;;;24.60;91.10;;;;;;5013107;28;20045;-60
2023/07/29 12:36:22;;;;;;;10.13;2.50;;;24.30;90.90;;;;;;5014546;28;20080;-61
2023/07/29 12:38:48;;;;;;;9.02;2.85;;;24.60;91.00;;;;;;5010434;28;20500;-61
2023/07/29 12:41:14;;;;;;;7.35;2.50;;;24.60;91.20;;;;;;5013756;28;20045;-63
2023/07/29 12:43:40;;;;;;;7.32;2.60;;;24.70;91.40;;;;;;5013809;28;20046;-60